Time;durP1;ratioP1;P1;durP2;ratioP2;P2;SDS_P1;SDS_P2;PMS_P1;PMS_P2;Temp;Humidity;BMP_temperature;BMP_pressure;BME280_temperature;BME280_humidity;BME280_pressure;Samples;Min_cycle;Max_cycle;Signal;HPM_P1;HPM_P2
2022/09/10 00:00:33;;;;;;;3.10;1.30;;;17.10;99.90;;;;;;5065542;28;20508;-84
2022/09/10 00:03:00;;;;;;;2.10;0.70;;;17.00;99.90;;;;;;5062014;28;20067;-84
2022/09/10 00:05:26;;;;;;;1.52;0.70;;;17.00;99.90;;;;;;5070075;28;20484;-84
2022/09/10 00:07:52;;;;;;;0.60;0.45;;;16.90;99.90;;;;;;5065566;28;20085;-81
2022/09/10 00:10:17;;;;;;;4.60;0.50;;;16.90;99.90;;;;;;5063892;28;20059;-84
2022/09/10 00:12:43;;;;;;;1.33;0.50;;;16.90;99.90;;;;;;5068744;28;20028;-82
2022/09/10 00:15:09;;;;;;;2.35;0.80;;;16.90;99.90;;;;;;5063006;28;20059;-84
2022/09/10 00:17:36;;;;;;;2.72;0.60;;;16.90;99.90;;;;;;5071547;28;20461;-83
2022/09/10 00:20:02;;;;;;;1.33;0.50;;;16.90;99.90;;;;;;5071597;28;20049;-84
2022/09/10 00:22:28;;;;;;;1.42;0.65;;;16.80;99.90;;;;;;5056024;28;20029;-84
2022/09/10 00:24:54;;;;;;;1.60;0.70;;;16.80;99.90;;;;;;5068899;28;20029;-83
2022/09/10 00:27:19;;;;;;;1.42;0.63;;;16.80;99.90;;;;;;5072354;28;20583;-83
2022/09/10 00:29:45;;;;;;;5.07;0.57;;;16.80;99.90;;;;;;5069931;28;20116;-83
2022/09/10 00:32:10;;;;;;;1.55;0.60;;;16.70;99.90;;;;;;5070699;28;20021;-82
2022/09/10 00:34:36;;;;;;;1.25;0.70;;;16.70;99.90;;;;;;5070708;28;20304;-85
2022/09/10 00:37:01;;;;;;;1.17;0.70;;;16.70;99.90;;;;;;5072457;28;20163;-82
2022/09/10 00:39:27;;;;;;;4.60;0.82;;;16.70;99.90;;;;;;5069752;28;20040;-82
2022/09/10 00:41:54;;;;;;;5.18;1.55;;;16.70;99.90;;;;;;5068115;28;20028;-82
2022/09/10 00:44:40;;;;;;;2.65;0.70;;;16.70;99.90;;;;;;5073521;28;20099;-81
2022/09/10 00:47:18;;;;;;;1.80;0.80;;;16.70;99.90;;;;;;5074020;28;20028;-84
2022/09/10 00:49:47;;;;;;;1.55;0.80;;;16.60;99.90;;;;;;5077285;28;20016;-82
2022/09/10 00:52:13;;;;;;;2.38;0.80;;;16.60;99.90;;;;;;5074224;28;20167;-81
2022/09/10 00:54:41;;;;;;;1.88;0.75;;;16.60;99.90;;;;;;5066341;28;20029;-84
2022/09/10 00:57:11;;;;;;;4.03;1.00;;;16.50;99.90;;;;;;5067691;28;20047;-82
2022/09/10 00:59:39;;;;;;;2.15;0.82;;;16.50;99.90;;;;;;5069529;28;20543;-84
2022/09/10 01:02:05;;;;;;;2.53;0.77;;;16.50;99.90;;;;;;5065918;28;20086;-82
2022/09/10 01:04:31;;;;;;;1.88;1.00;;;16.50;99.90;;;;;;5071467;28;20464;-84
2022/09/10 01:06:57;;;;;;;1.73;1.00;;;16.50;99.90;;;;;;5074258;28;20040;-83
2022/09/10 01:09:23;;;;;;;2.45;1.15;;;16.50;99.90;;;;;;5082162;28;20031;-84
2022/09/10 01:12:30;;;;;;;3.20;0.75;;;16.40;99.90;;;;;;5070341;28;20031;-83
2022/09/10 01:15:08;;;;;;;2.03;0.50;;;16.40;99.90;;;;;;5073651;28;20112;-83
2022/09/10 01:17:53;;;;;;;2.55;0.65;;;16.40;99.90;;;;;;5071377;28;20381;-83
2022/09/10 01:20:50;;;;;;;4.43;0.88;;;16.40;99.90;;;;;;5068764;28;20029;-83
2022/09/10 01:23:58;;;;;;;2.40;0.82;;;16.40;99.90;;;;;;5072927;28;20036;-82
2022/09/10 01:26:34;;;;;;;4.78;0.73;;;16.40;99.90;;;;;;5083459;28;20092;-82
2022/09/10 01:29:08;;;;;;;3.75;0.70;;;16.30;99.90;;;;;;5078888;28;20357;-81
2022/09/10 01:31:48;;;;;;;2.47;0.82;;;16.30;99.90;;;;;;5076851;28;20060;-82
2022/09/10 01:34:26;;;;;;;1.23;0.52;;;16.40;99.90;;;;;;5065875;28;20034;-82
2022/09/10 01:36:56;;;;;;;2.47;0.70;;;16.30;99.90;;;;;;5070580;28;20028;-82
2022/09/10 01:39:23;;;;;;;1.45;0.70;;;16.30;99.90;;;;;;5069412;28;20029;-81
2022/09/10 01:41:52;;;;;;;1.83;0.60;;;16.40;99.90;;;;;;5067366;28;20059;-83
2022/09/10 01:44:49;;;;;;;5.95;0.93;;;16.40;99.90;;;;;;5057026;28;20342;-82
2022/09/10 01:47:43;;;;;;;1.25;0.60;;;16.40;99.90;;;;;;5066054;28;20025;-84
2022/09/10 01:50:24;;;;;;;1.33;0.55;;;16.40;99.90;;;;;;5071457;28;20035;-81
2022/09/10 01:53:29;;;;;;;1.10;0.68;;;16.40;99.90;;;;;;5069786;28;20028;-81
2022/09/10 01:56:13;;;;;;;3.10;0.75;;;16.30;99.90;;;;;;5069222;28;20050;-84
2022/09/10 01:58:41;;;;;;;1.17;0.57;;;16.30;99.90;;;;;;5073045;28;20078;-82
2022/09/10 02:01:31;;;;;;;3.17;0.80;;;16.30;99.90;;;;;;5066072;28;20365;-82
2022/09/10 02:04:01;;;;;;;1.55;0.70;;;16.40;99.90;;;;;;5064432;28;20041;-83
2022/09/10 02:06:30;;;;;;;3.30;0.68;;;16.30;99.90;;;;;;5062730;28;20072;-84
2022/09/10 02:08:58;;;;;;;4.10;0.80;;;16.30;99.90;;;;;;5067180;28;20116;-84
2022/09/10 02:11:23;;;;;;;1.70;0.57;;;16.30;99.90;;;;;;5075805;28;20024;-83
2022/09/10 02:13:49;;;;;;;1.60;0.50;;;16.30;99.90;;;;;;5070597;28;20035;-83
2022/09/10 02:16:29;;;;;;;1.10;0.40;;;16.40;99.90;;;;;;5069787;28;20025;-85
2022/09/10 02:18:57;;;;;;;1.15;0.60;;;16.30;99.90;;;;;;5074424;28;20017;-84
2022/09/10 02:21:22;;;;;;;2.63;1.33;;;16.40;99.90;;;;;;5057430;28;22141;-82
2022/09/10 02:23:55;;;;;;;2.88;0.70;;;16.30;99.90;;;;;;5067637;28;20023;-82
2022/09/10 02:26:21;;;;;;;1.63;0.57;;;16.30;99.90;;;;;;5064084;28;20542;-84
2022/09/10 02:28:50;;;;;;;2.05;0.57;;;16.40;99.90;;;;;;5068993;28;20032;-83
2022/09/10 02:31:16;;;;;;;4.18;0.70;;;16.30;99.90;;;;;;5068507;28;20051;-83
2022/09/10 02:33:42;;;;;;;2.70;0.80;;;16.30;99.90;;;;;;5068102;28;20032;-83
2022/09/10 02:36:07;;;;;;;1.10;0.55;;;16.40;99.90;;;;;;5065092;28;20036;-84
2022/09/10 02:38:33;;;;;;;2.13;0.50;;;16.40;99.90;;;;;;5074308;28;20170;-83
2022/09/10 02:40:58;;;;;;;1.88;0.57;;;16.40;99.90;;;;;;5067538;28;20028;-83
2022/09/10 02:43:27;;;;;;;1.02;0.63;;;16.40;99.90;;;;;;5057470;28;20426;-81
2022/09/10 02:45:57;;;;;;;3.60;0.77;;;16.40;99.90;;;;;;5064124;28;20067;-83
2022/09/10 02:48:26;;;;;;;2.83;0.50;;;16.40;99.90;;;;;;5067219;28;20024;-84
2022/09/10 02:50:53;;;;;;;1.23;0.68;;;16.30;99.90;;;;;;5058409;28;20543;-83
2022/09/10 02:53:19;;;;;;;2.85;0.88;;;16.40;99.90;;;;;;5075271;28;20036;-83
2022/09/10 02:55:45;;;;;;;1.52;0.70;;;16.40;99.90;;;;;;5064536;28;20987;-84
2022/09/10 02:58:12;;;;;;;1.52;0.45;;;16.40;99.90;;;;;;5072120;28;20032;-83
2022/09/10 03:00:39;;;;;;;2.38;0.80;;;16.40;99.90;;;;;;5065524;28;20111;-83
2022/09/10 03:03:05;;;;;;;0.77;0.70;;;16.40;99.90;;;;;;5068852;28;20029;-83
2022/09/10 03:05:31;;;;;;;1.33;0.60;;;16.30;99.90;;;;;;5066952;28;20036;-83
2022/09/10 03:07:57;;;;;;;1.35;0.60;;;16.30;99.90;;;;;;5070407;28;20043;-83
2022/09/10 03:10:23;;;;;;;2.90;0.77;;;16.30;99.90;;;;;;5069681;28;20025;-82
2022/09/10 03:12:48;;;;;;;2.25;0.85;;;16.30;99.90;;;;;;5064318;28;20021;-83
2022/09/10 03:15:14;;;;;;;3.13;0.52;;;16.30;99.90;;;;;;5066359;28;20473;-82
2022/09/10 03:17:40;;;;;;;2.13;0.73;;;16.30;99.90;;;;;;5062362;28;20033;-84
2022/09/10 03:20:06;;;;;;;3.75;0.80;;;16.20;99.90;;;;;;5068362;28;20036;-82
2022/09/10 03:22:32;;;;;;;3.40;0.50;;;16.20;99.90;;;;;;5075187;28;20025;-83
2022/09/10 03:24:58;;;;;;;1.48;0.60;;;16.20;99.90;;;;;;5068375;28;20022;-83
2022/09/10 03:27:25;;;;;;;3.55;0.65;;;16.20;99.90;;;;;;5066064;28;20372;-82
2022/09/10 03:29:50;;;;;;;1.85;0.63;;;16.20;99.90;;;;;;5066583;28;20028;-83
2022/09/10 03:32:16;;;;;;;2.08;0.60;;;16.20;99.90;;;;;;5066830;28;20377;-82
2022/09/10 03:34:42;;;;;;;2.90;0.73;;;16.20;99.90;;;;;;5067076;28;20043;-83
2022/09/10 03:37:08;;;;;;;2.30;0.70;;;16.20;99.90;;;;;;5066532;28;20082;-83
2022/09/10 03:39:33;;;;;;;6.78;0.60;;;16.10;99.90;;;;;;5071164;28;20050;-83
2022/09/10 03:41:59;;;;;;;2.75;0.70;;;16.10;99.90;;;;;;5064499;28;20119;-83
2022/09/10 03:44:24;;;;;;;4.25;0.63;;;16.10;99.90;;;;;;5064743;28;20522;-83
2022/09/10 03:46:51;;;;;;;1.95;0.60;;;16.10;99.90;;;;;;5067112;28;20039;-84
2022/09/10 03:49:16;;;;;;;5.38;0.95;;;16.00;99.90;;;;;;5068387;28;20029;-83
2022/09/10 03:51:42;;;;;;;2.45;0.82;;;16.10;99.90;;;;;;5065955;28;20024;-82
2022/09/10 03:54:07;;;;;;;1.08;0.60;;;16.00;99.90;;;;;;5068379;28;20040;-84
2022/09/10 03:56:33;;;;;;;3.00;0.60;;;16.00;99.90;;;;;;5066052;28;20036;-84
2022/09/10 03:58:59;;;;;;;2.28;0.68;;;16.00;99.90;;;;;;5072303;28;20420;-83
2022/09/10 04:01:25;;;;;;;1.73;0.70;;;16.00;99.90;;;;;;5063499;28;20045;-84
2022/09/10 04:03:55;;;;;;;2.28;0.70;;;16.00;99.90;;;;;;5068652;28;20739;-83
2022/09/10 04:06:21;;;;;;;4.40;0.80;;;16.00;99.90;;;;;;5063984;28;20230;-83
2022/09/10 04:08:51;;;;;;;1.83;0.60;;;16.00;99.90;;;;;;5068036;28;20111;-82
2022/09/10 04:11:17;;;;;;;5.15;1.20;;;16.00;99.90;;;;;;5067961;28;20191;-81
2022/09/10 04:13:44;;;;;;;4.40;0.90;;;16.00;99.90;;;;;;5067042;28;20021;-83
2022/09/10 04:16:10;;;;;;;1.35;0.70;;;16.00;99.90;;;;;;5061475;28;20035;-84
2022/09/10 04:18:36;;;;;;;3.45;0.77;;;16.10;99.90;;;;;;5067870;28;20427;-84
2022/09/10 04:21:02;;;;;;;1.90;0.90;;;16.10;99.90;;;;;;5067370;28;20033;-83
2022/09/10 04:23:28;;;;;;;2.50;0.70;;;16.10;99.90;;;;;;5070588;28;20481;-84
2022/09/10 04:25:54;;;;;;;3.53;0.98;;;16.10;99.90;;;;;;5067298;28;20032;-84
2022/09/10 04:28:19;;;;;;;6.97;1.02;;;16.20;99.90;;;;;;5064752;28;20451;-82
2022/09/10 04:30:45;;;;;;;2.08;0.70;;;16.20;99.90;;;;;;5065661;28;20031;-83
2022/09/10 04:33:11;;;;;;;2.22;0.63;;;16.20;99.90;;;;;;5068779;28;20050;-83
2022/09/10 04:35:38;;;;;;;5.55;1.40;;;16.20;99.90;;;;;;5057876;28;20028;-85
2022/09/10 04:38:04;;;;;;;1.85;0.70;;;16.20;99.90;;;;;;5064363;28;20029;-84
2022/09/10 04:40:29;;;;;;;2.47;1.02;;;16.20;99.90;;;;;;5069263;28;20024;-83
2022/09/10 04:42:55;;;;;;;7.05;0.90;;;16.20;99.90;;;;;;5068262;28;20793;-83
2022/09/10 04:45:20;;;;;;;3.38;0.80;;;16.20;99.90;;;;;;5070507;28;20078;-82
2022/09/10 04:47:46;;;;;;;0.82;0.70;;;16.20;99.90;;;;;;5060563;28;20028;-82
2022/09/10 04:50:14;;;;;;;1.63;0.90;;;16.20;99.90;;;;;;5062761;28;20047;-82
2022/09/10 04:52:42;;;;;;;3.33;1.33;;;16.20;99.90;;;;;;5065491;28;20032;-82
2022/09/10 04:55:08;;;;;;;3.20;1.23;;;16.20;99.90;;;;;;5069032;28;20032;-82
2022/09/10 04:57:34;;;;;;;3.35;0.90;;;16.20;99.90;;;;;;5060360;28;20127;-83
2022/09/10 05:00:02;;;;;;;2.47;0.65;;;16.20;99.90;;;;;;5060036;28;20497;-82
2022/09/10 05:02:28;;;;;;;1.67;0.65;;;16.20;99.90;;;;;;5069039;28;20158;-83
2022/09/10 05:04:53;;;;;;;2.00;0.85;;;16.20;99.90;;;;;;5076972;28;20036;-82
2022/09/10 05:07:19;;;;;;;4.32;0.75;;;16.20;99.90;;;;;;5084593;28;20031;-83
2022/09/10 05:09:44;;;;;;;0.98;0.60;;;16.20;99.90;;;;;;5079524;28;20372;-82
2022/09/10 05:12:10;;;;;;;1.80;0.55;;;16.20;99.90;;;;;;5066528;28;20036;-83
2022/09/10 05:14:36;;;;;;;1.90;0.70;;;16.20;99.90;;;;;;5082962;28;20114;-83
2022/09/10 05:17:02;;;;;;;2.35;0.90;;;16.20;99.90;;;;;;5063958;28;20036;-83
2022/09/10 05:19:28;;;;;;;2.55;0.90;;;16.30;99.90;;;;;;5067791;28;20029;-84
2022/09/10 05:21:53;;;;;;;2.28;0.80;;;16.30;99.90;;;;;;5074740;28;20020;-84
2022/09/10 05:24:20;;;;;;;1.95;0.80;;;16.30;99.90;;;;;;5074868;28;20036;-84
2022/09/10 05:26:45;;;;;;;3.50;1.02;;;16.40;99.90;;;;;;5060946;28;20081;-84
2022/09/10 05:29:11;;;;;;;2.53;0.75;;;16.40;99.90;;;;;;5060680;28;20115;-84
2022/09/10 05:31:37;;;;;;;1.40;0.80;;;16.50;99.90;;;;;;5069404;28;20039;-82
2022/09/10 05:34:03;;;;;;;1.35;0.73;;;16.50;99.90;;;;;;5071800;28;20456;-84
2022/09/10 05:36:32;;;;;;;3.10;0.98;;;16.60;99.90;;;;;;5076538;28;20077;-83
2022/09/10 05:38:59;;;;;;;1.00;0.70;;;16.70;99.90;;;;;;5069544;28;20107;-83
2022/09/10 05:41:26;;;;;;;1.33;0.60;;;16.80;99.90;;;;;;5065765;28;20028;-82
2022/09/10 05:43:53;;;;;;;3.05;0.70;;;16.90;99.90;;;;;;5065765;28;20381;-83
2022/09/10 05:46:19;;;;;;;1.88;0.70;;;16.90;99.90;;;;;;5067392;28;20035;-82
2022/09/10 05:48:45;;;;;;;2.15;0.80;;;17.00;99.90;;;;;;5077517;28;20028;-82
2022/09/10 05:51:11;;;;;;;2.78;0.70;;;17.10;99.90;;;;;;5084295;28;20024;-82
2022/09/10 05:53:37;;;;;;;1.80;0.50;;;17.20;99.90;;;;;;5081951;28;20021;-82
2022/09/10 05:56:04;;;;;;;6.78;1.15;;;17.20;99.90;;;;;;5083320;28;20027;-81
2022/09/10 05:58:30;;;;;;;4.53;0.98;;;17.30;99.90;;;;;;5074863;28;20653;-83
2022/09/10 06:00:57;;;;;;;3.13;0.68;;;17.40;99.90;;;;;;5078774;28;20064;-84
2022/09/10 06:03:23;;;;;;;1.63;0.60;;;17.50;99.90;;;;;;5069493;28;20021;-81
2022/09/10 06:05:50;;;;;;;1.55;0.73;;;17.50;99.90;;;;;;5071009;28;20101;-81
2022/09/10 06:08:20;;;;;;;1.33;0.60;;;17.70;99.90;;;;;;5069575;28;20031;-82
2022/09/10 06:10:59;;;;;;;1.70;0.60;;;17.70;99.90;;;;;;5071051;28;20035;-82
2022/09/10 06:13:25;;;;;;;1.63;1.15;;;17.80;99.90;;;;;;5069407;28;20081;-83
2022/09/10 06:15:51;;;;;;;1.45;0.57;;;17.80;99.90;;;;;;5068587;28;20111;-84
2022/09/10 06:18:16;;;;;;;2.35;0.73;;;17.90;99.90;;;;;;5068649;28;20033;-82
2022/09/10 06:20:42;;;;;;;2.08;0.60;;;17.90;99.90;;;;;;5069774;28;20028;-81
2022/09/10 06:23:07;;;;;;;1.35;0.55;;;18.00;99.90;;;;;;5082705;28;20020;-81
2022/09/10 06:25:33;;;;;;;1.33;0.47;;;18.00;99.90;;;;;;5075298;28;20024;-82
2022/09/10 06:28:00;;;;;;;0.90;0.60;;;18.00;99.90;;;;;;5072950;28;20028;-81
2022/09/10 06:30:26;;;;;;;3.78;0.73;;;18.00;99.90;;;;;;5069535;28;20036;-82
2022/09/10 06:32:51;;;;;;;1.33;0.73;;;18.10;99.90;;;;;;5070404;28;20024;-82
2022/09/10 06:35:17;;;;;;;4.35;0.70;;;18.20;99.90;;;;;;5070480;28;20024;-83
2022/09/10 06:37:42;;;;;;;0.60;0.50;;;18.20;99.90;;;;;;5078106;28;20020;-82
2022/09/10 06:40:08;;;;;;;1.20;0.40;;;18.20;99.70;;;;;;5067696;28;20470;-81
2022/09/10 06:42:34;;;;;;;1.23;0.40;;;18.30;99.90;;;;;;5065369;28;20270;-78
2022/09/10 06:44:59;;;;;;;1.02;0.43;;;18.30;99.90;;;;;;5074362;28;20024;-83
2022/09/10 06:47:25;;;;;;;3.13;0.40;;;18.40;99.80;;;;;;5064679;28;20426;-83
2022/09/10 06:49:51;;;;;;;2.55;0.65;;;18.40;99.30;;;;;;5067431;28;20048;-83
2022/09/10 06:52:17;;;;;;;1.27;0.50;;;18.50;99.20;;;;;;5072718;28;20025;-84
2022/09/10 06:54:42;;;;;;;4.07;1.40;;;18.40;98.80;;;;;;5069925;28;20021;-84
2022/09/10 06:57:09;;;;;;;1.65;0.50;;;18.40;99.00;;;;;;5066315;28;20039;-83
2022/09/10 06:59:34;;;;;;;0.60;0.30;;;18.40;99.10;;;;;;5066999;28;20508;-84
2022/09/10 07:02:01;;;;;;;2.28;0.50;;;18.40;99.00;;;;;;5069032;28;20025;-83
2022/09/10 07:04:26;;;;;;;2.03;0.50;;;18.40;98.90;;;;;;5067076;28;20029;-82
2022/09/10 07:06:52;;;;;;;1.13;0.50;;;18.40;98.80;;;;;;5071613;28;20099;-83
2022/09/10 07:09:18;;;;;;;0.93;0.30;;;18.50;98.80;;;;;;5075824;28;20479;-83
2022/09/10 07:11:43;;;;;;;4.97;0.60;;;18.60;98.90;;;;;;5068609;28;20024;-83
2022/09/10 07:14:11;;;;;;;1.00;0.45;;;18.60;98.80;;;;;;5069949;28;20024;-80
2022/09/10 07:16:40;;;;;;;0.80;0.32;;;18.70;98.80;;;;;;5065599;28;20125;-82
2022/09/10 07:19:06;;;;;;;1.35;0.50;;;18.80;98.50;;;;;;5070496;28;20029;-88
2022/09/10 07:21:34;;;;;;;2.88;0.55;;;18.80;98.00;;;;;;5070837;28;20628;-85
2022/09/10 07:24:00;;;;;;;2.28;0.60;;;18.90;98.20;;;;;;5066950;28;20073;-83
2022/09/10 07:26:26;;;;;;;0.63;0.38;;;18.90;98.00;;;;;;5068830;28;20345;-83
2022/09/10 07:28:52;;;;;;;3.55;0.77;;;18.90;97.80;;;;;;5068935;28;20710;-82
2022/09/10 07:31:19;;;;;;;1.85;0.50;;;19.00;97.80;;;;;;5068634;28;20024;-83
2022/09/10 07:33:46;;;;;;;1.85;0.50;;;19.10;97.90;;;;;;5064531;28;20027;-84
2022/09/10 07:36:12;;;;;;;10.75;1.17;;;19.10;97.80;;;;;;5065420;28;20032;-83
2022/09/10 07:38:39;;;;;;;2.17;0.52;;;19.30;97.70;;;;;;5065226;28;20036;-84
2022/09/10 07:41:07;;;;;;;2.72;0.50;;;19.30;97.40;;;;;;5067520;28;20123;-83
2022/09/10 07:43:33;;;;;;;1.33;0.50;;;19.40;97.40;;;;;;5063353;28;20082;-81
2022/09/10 07:45:58;;;;;;;1.38;0.88;;;19.50;97.60;;;;;;5068095;28;20033;-86
2022/09/10 07:48:26;;;;;;;1.83;0.50;;;19.50;97.20;;;;;;5070238;28;20028;-86
2022/09/10 07:50:51;;;;;;;2.90;0.50;;;19.50;97.30;;;;;;5070339;28;20052;-87
2022/09/10 07:53:17;;;;;;;2.50;0.60;;;19.60;97.00;;;;;;5069259;28;20063;-85
2022/09/10 07:55:42;;;;;;;1.83;0.40;;;19.60;97.50;;;;;;5068446;28;20028;-86
2022/09/10 07:58:09;;;;;;;1.17;0.52;;;19.70;96.90;;;;;;5070079;28;20047;-85
2022/09/10 08:00:34;;;;;;;1.73;0.40;;;19.70;97.00;;;;;;5069261;28;20369;-85
2022/09/10 08:03:00;;;;;;;1.77;0.40;;;19.80;96.30;;;;;;5069156;28;20039;-86
2022/09/10 08:05:27;;;;;;;1.55;0.60;;;19.80;96.70;;;;;;5066848;28;20082;-86
2022/09/10 08:07:53;;;;;;;1.67;0.40;;;19.80;96.80;;;;;;5067232;28;20025;-85
2022/09/10 08:10:19;;;;;;;1.20;0.45;;;19.90;97.20;;;;;;5068562;28;20082;-85
2022/09/10 08:12:45;;;;;;;0.85;0.38;;;20.00;96.50;;;;;;5067973;28;20047;-85
2022/09/10 08:15:10;;;;;;;1.65;0.50;;;20.00;96.00;;;;;;5070315;28;20477;-86
2022/09/10 08:17:37;;;;;;;1.05;0.45;;;20.10;96.40;;;;;;5068153;28;20056;-85
2022/09/10 08:20:05;;;;;;;2.47;0.50;;;20.20;96.30;;;;;;5070759;28;20472;-86
2022/09/10 08:22:31;;;;;;;1.02;0.40;;;20.30;96.80;;;;;;5068906;28;20045;-85
2022/09/10 08:24:57;;;;;;;2.05;0.65;;;20.50;96.00;;;;;;5070596;28;20024;-85
2022/09/10 08:27:23;;;;;;;1.42;0.60;;;20.50;95.80;;;;;;5070190;28;20024;-86
2022/09/10 08:29:48;;;;;;;1.05;0.50;;;20.50;95.60;;;;;;5068371;28;20024;-87
2022/09/10 08:32:14;;;;;;;1.85;0.50;;;20.60;95.60;;;;;;5051773;28;20017;-86
2022/09/10 08:34:39;;;;;;;0.68;0.38;;;20.50;95.50;;;;;;5068503;28;20027;-86
2022/09/10 08:37:06;;;;;;;1.80;0.40;;;20.40;95.60;;;;;;5072957;28;20124;-86
2022/09/10 08:39:31;;;;;;;1.92;0.82;;;20.30;95.50;;;;;;5073671;28;20071;-86
2022/09/10 08:42:10;;;;;;;2.30;0.43;;;20.30;95.80;;;;;;5070972;28;20044;-85
2022/09/10 08:45:04;;;;;;;1.00;0.60;;;20.20;95.30;;;;;;5082782;28;20062;-85
2022/09/10 08:48:01;;;;;;;0.90;0.50;;;20.20;95.70;;;;;;5099229;28;20036;-84
2022/09/10 08:50:53;;;;;;;2.03;0.50;;;20.20;95.90;;;;;;5092714;28;20075;-85
2022/09/10 08:53:42;;;;;;;1.10;0.40;;;20.20;95.90;;;;;;5090519;28;20017;-87
2022/09/10 08:56:14;;;;;;;1.48;0.38;;;20.30;95.80;;;;;;5080943;28;20047;-87
2022/09/10 08:59:01;;;;;;;1.90;0.60;;;20.50;95.90;;;;;;5072766;28;20025;-87
2022/09/10 09:01:50;;;;;;;1.20;0.40;;;20.60;95.40;;;;;;5072616;28;20046;-87
2022/09/10 09:04:28;;;;;;;0.60;0.38;;;20.80;95.00;;;;;;5073684;28;20020;-86
2022/09/10 09:06:59;;;;;;;1.67;0.47;;;20.90;95.10;;;;;;5072919;28;20107;-86
2022/09/10 09:09:24;;;;;;;1.67;0.40;;;20.90;94.70;;;;;;5072013;28;20103;-85
2022/09/10 09:12:14;;;;;;;2.58;0.60;;;20.90;94.60;;;;;;5072147;28;20487;-87
2022/09/10 09:15:07;;;;;;;4.95;0.80;;;21.00;94.90;;;;;;5073048;28;20538;-87
2022/09/10 09:17:57;;;;;;;1.27;0.40;;;21.00;95.10;;;;;;5071524;28;20655;-86
2022/09/10 09:21:05;;;;;;;2.97;0.40;;;21.20;94.20;;;;;;5073445;28;20021;-85
2022/09/10 09:23:54;;;;;;;3.63;0.70;;;21.40;94.20;;;;;;5066614;28;20037;-86
2022/09/10 09:26:19;;;;;;;1.08;0.25;;;21.50;94.20;;;;;;5071690;28;20021;-87
2022/09/10 09:29:00;;;;;;;1.25;0.50;;;21.50;93.40;;;;;;5069901;28;20039;-87
2022/09/10 09:31:30;;;;;;;5.47;0.40;;;21.60;93.60;;;;;;5072665;28;20109;-87
2022/09/10 09:34:00;;;;;;;1.48;0.47;;;21.60;93.10;;;;;;5070709;28;20520;-87
2022/09/10 09:36:33;;;;;;;2.22;0.50;;;21.60;93.30;;;;;;5073528;28;20067;-86
2022/09/10 09:39:00;;;;;;;;;;;21.60;93.50;;;;;;5074361;28;20013;-87
2022/09/10 09:42:17;;;;;;;1.90;0.47;;;21.60;93.10;;;;;;5073585;28;19970;-86
2022/09/10 09:44:56;;;;;;;3.75;0.50;;;21.60;93.40;;;;;;5064813;28;20037;-86
2022/09/10 09:47:22;;;;;;;2.88;0.60;;;21.60;92.70;;;;;;5070448;28;20029;-87
2022/09/10 09:49:48;;;;;;;2.13;0.63;;;21.60;92.90;;;;;;5072177;28;20027;-87
2022/09/10 09:52:25;;;;;;;1.65;0.38;;;21.70;93.00;;;;;;5071709;28;20147;-87
2022/09/10 09:54:55;;;;;;;1.38;0.32;;;21.60;93.10;;;;;;5073886;28;20118;-88
2022/09/10 09:57:20;;;;;;;1.98;0.70;;;21.80;92.80;;;;;;5073310;28;20029;-86
2022/09/10 09:59:48;;;;;;;1.25;0.35;;;21.90;93.10;;;;;;5071268;28;20381;-87
2022/09/10 10:02:18;;;;;;;1.55;0.40;;;22.10;93.10;;;;;;5073377;28;20408;-90
2022/09/10 10:05:19;;;;;;;2.67;0.60;;;22.20;92.90;;;;;;5069934;28;20016;-86
2022/09/10 10:07:47;;;;;;;1.73;0.40;;;22.30;92.50;;;;;;5070169;28;20031;-86
2022/09/10 10:10:23;;;;;;;2.35;0.43;;;22.40;92.60;;;;;;5071906;28;20637;-86
2022/09/10 10:12:50;;;;;;;3.03;0.40;;;22.40;92.00;;;;;;5052556;28;20021;-87
2022/09/10 10:15:35;;;;;;;1.15;0.40;;;22.40;91.80;;;;;;5071838;28;20061;-87
2022/09/10 10:18:23;;;;;;;1.15;0.63;;;22.20;91.90;;;;;;5060095;28;20032;-89
2022/09/10 10:21:17;;;;;;;3.03;0.50;;;22.20;91.90;;;;;;5064728;28;20803;-82
2022/09/10 10:23:43;;;;;;;2.33;0.30;;;22.20;91.80;;;;;;5063716;28;20060;-86
2022/09/10 10:26:24;;;;;;;0.93;0.30;;;22.40;91.90;;;;;;5067571;28;20032;-85
2022/09/10 10:28:55;;;;;;;1.25;0.32;;;22.60;92.80;;;;;;5062576;28;20024;-86
2022/09/10 10:31:21;;;;;;;4.15;0.57;;;22.70;91.20;;;;;;5070061;28;20017;-85
2022/09/10 10:34:07;;;;;;;0.93;0.40;;;22.80;91.00;;;;;;5068236;28;20036;-86
2022/09/10 10:36:52;;;;;;;2.17;0.40;;;23.00;91.50;;;;;;5060269;28;20036;-80
2022/09/10 10:39:23;;;;;;;3.28;0.50;;;23.20;92.40;;;;;;5065889;28;20055;-79
2022/09/10 10:41:51;;;;;;;2.05;0.40;;;23.50;91.30;;;;;;5075967;28;20016;-87
2022/09/10 10:44:42;;;;;;;3.50;0.40;;;23.70;90.70;;;;;;5068724;28;20507;-86
2022/09/10 10:47:23;;;;;;;1.38;0.50;;;23.70;90.10;;;;;;5079080;28;20031;-87
2022/09/10 10:50:10;;;;;;;2.85;0.38;;;23.60;90.50;;;;;;5066279;28;20473;-79
2022/09/10 10:52:43;;;;;;;1.55;0.52;;;23.50;90.60;;;;;;5067181;28;20025;-79
2022/09/10 10:55:17;;;;;;;0.90;0.50;;;23.40;90.50;;;;;;5068581;28;20468;-88
2022/09/10 10:58:17;;;;;;;2.70;0.63;;;23.10;90.50;;;;;;5069759;28;20051;-87
2022/09/10 11:00:57;;;;;;;0.52;0.30;;;23.00;90.40;;;;;;5083103;28;20020;-87
2022/09/10 11:03:30;;;;;;;1.23;0.47;;;22.90;90.30;;;;;;5068901;28;20354;-88
2022/09/10 11:06:33;;;;;;;1.65;0.40;;;22.80;90.20;;;;;;5076156;28;20047;-87
2022/09/10 11:09:20;;;;;;;2.58;0.82;;;22.80;90.10;;;;;;5052712;28;20028;-88
2022/09/10 11:11:58;;;;;;;3.72;0.82;;;22.80;90.10;;;;;;5070461;28;20013;-87
2022/09/10 11:15:12;;;;;;;1.48;0.40;;;22.60;90.80;;;;;;5070867;28;20012;-86
2022/09/10 11:17:46;;;;;;;1.52;0.70;;;22.60;90.50;;;;;;5053189;28;20469;-86
2022/09/10 11:20:18;;;;;;;4.53;0.65;;;22.60;90.90;;;;;;5071024;28;20119;-86
2022/09/10 11:23:08;;;;;;;1.95;0.40;;;22.70;90.50;;;;;;5072087;28;20005;-87
2022/09/10 11:25:53;;;;;;;2.83;0.55;;;22.70;90.80;;;;;;5066638;28;20028;-87
2022/09/10 11:28:23;;;;;;;0.88;0.40;;;22.70;90.40;;;;;;5071915;28;20102;-86
2022/09/10 11:30:57;;;;;;;1.70;0.50;;;22.70;90.50;;;;;;5070493;28;20311;-87
2022/09/10 11:33:35;;;;;;;0.98;0.50;;;22.80;91.20;;;;;;5068802;28;20039;-86
2022/09/10 11:36:17;;;;;;;5.47;0.50;;;22.90;90.80;;;;;;5065299;28;20362;-87
2022/09/10 11:39:07;;;;;;;1.95;0.80;;;23.00;89.40;;;;;;5051659;28;20040;-87
2022/09/10 11:41:37;;;;;;;1.80;0.50;;;23.00;90.10;;;;;;5065182;28;20025;-87
2022/09/10 11:44:15;;;;;;;0.63;0.32;;;23.00;90.10;;;;;;5064669;28;20043;-87
2022/09/10 11:47:05;;;;;;;2.03;0.50;;;22.90;89.90;;;;;;5064221;28;20025;-87
2022/09/10 11:49:47;;;;;;;0.90;0.38;;;22.70;90.40;;;;;;5070960;28;20017;-86
2022/09/10 11:52:14;;;;;;;2.45;0.75;;;22.70;90.40;;;;;;5068948;28;20040;-86
2022/09/10 11:54:39;;;;;;;4.07;0.93;;;22.60;90.20;;;;;;5081081;28;20036;-88
2022/09/10 11:57:23;;;;;;;1.48;0.60;;;22.60;90.50;;;;;;5085604;28;20086;-88
2022/09/10 12:00:15;;;;;;;3.60;0.93;;;22.60;90.20;;;;;;5087086;28;20057;-87
2022/09/10 12:03:29;;;;;;;3.40;0.70;;;22.50;90.30;;;;;;5076506;28;20047;-88
2022/09/10 12:06:15;;;;;;;1.20;0.40;;;22.40;90.90;;;;;;5035470;28;20043;-89
2022/09/10 12:08:54;;;;;;;1.13;0.50;;;22.40;91.40;;;;;;5071179;28;20031;-87
2022/09/10 12:11:57;;;;;;;0.73;0.38;;;22.60;91.40;;;;;;5079346;28;20044;-87
2022/09/10 12:14:23;;;;;;;5.63;0.75;;;22.80;90.40;;;;;;5070323;28;20388;-88
2022/09/10 12:16:53;;;;;;;2.00;0.47;;;23.10;90.80;;;;;;5078740;28;20033;-87
2022/09/10 12:19:30;;;;;;;2.72;0.75;;;23.40;89.80;;;;;;5076229;28;20101;-88
2022/09/10 12:22:00;;;;;;;2.90;0.70;;;23.50;91.10;;;;;;5081155;28;20035;-88
2022/09/10 12:24:35;;;;;;;2.75;0.85;;;23.70;90.40;;;;;;5105560;28;20469;-87
2022/09/10 12:27:04;;;;;;;1.77;0.63;;;23.80;88.10;;;;;;5101076;28;20029;-87
2022/09/10 12:29:35;;;;;;;0.88;0.30;;;23.80;89.20;;;;;;5078875;28;20040;-81
2022/09/10 12:32:08;;;;;;;1.75;0.40;;;23.80;89.40;;;;;;5066499;28;20590;-83
2022/09/10 12:34:38;;;;;;;1.10;0.50;;;23.80;90.00;;;;;;5074642;28;20210;-89
2022/09/10 12:37:03;;;;;;;2.33;0.55;;;23.80;90.30;;;;;;5075464;28;20036;-86
2022/09/10 12:39:29;;;;;;;1.38;0.45;;;23.80;90.60;;;;;;5075071;28;20027;-85
2022/09/10 12:41:57;;;;;;;1.50;0.40;;;23.90;89.80;;;;;;5073331;28;20016;-88
2022/09/10 12:44:41;;;;;;;2.85;0.45;;;24.00;90.20;;;;;;5071679;28;20364;-86
2022/09/10 12:47:16;;;;;;;1.63;0.47;;;24.00;87.70;;;;;;5079997;28;20062;-86
2022/09/10 12:49:56;;;;;;;1.95;0.55;;;23.80;90.00;;;;;;5071802;28;20058;-86
2022/09/10 12:52:34;;;;;;;1.50;0.50;;;23.70;89.30;;;;;;5073532;28;20028;-85
2022/09/10 12:55:32;;;;;;;2.05;0.57;;;23.60;89.80;;;;;;5072877;28;20017;-88
2022/09/10 12:58:35;;;;;;;1.05;0.50;;;23.50;90.30;;;;;;5073914;28;20054;-86
2022/09/10 13:01:03;;;;;;;;;;;23.30;91.00;;;;;;5074346;28;20024;-86
2022/09/10 13:03:30;;;;;;;1.02;0.40;;;23.00;90.90;;;;;;5074006;28;19908;-85
2022/09/10 13:05:59;;;;;;;0.82;0.43;;;22.80;90.50;;;;;;5073195;28;20401;-86
2022/09/10 13:08:30;;;;;;;1.73;0.40;;;22.60;91.00;;;;;;5073780;28;20483;-87
2022/09/10 13:10:57;;;;;;;1.08;0.38;;;22.30;91.50;;;;;;5072449;28;20028;-88